RYR2QB LFOB-EGCC
Flight info
| Callsign | RYR2QB |
|---|---|
| Flight time | 0h 59m |
| Altitude | 34000 |
| Route | VESAN DCT RATUK DCT SOVAT L613 SANDY UN57 WELIN T420 ELVOS |
| Aircraft | B38M/M-SADE3FGILRWY/SB1 |
Departure
| Time | 2026-04-22 19:45 |
|---|---|
| Airport | Beauvais-Tillé airport (LFOB) |
Arrival
| Time | 2026-04-22 20:44 |
|---|---|
| Airport | Manchester Airport (EGCC) |
| Time | Latitude | Longitude | Altitude | Speed | Heading |
|---|---|---|---|---|---|
| 2026-04-22 19:14 | 49.45848 | 2.11068 | 351 ft | 0 kts | 58° |
| 2026-04-22 19:38 | 49.45843 | 2.11054 | 358 ft | 4 kts | 66° |
| 2026-04-22 19:38 | 49.45832 | 2.11029 | 354 ft | 3 kts | 37° |
| 2026-04-22 19:38 | 49.45812 | 2.11017 | 355 ft | 4 kts | 349° |
| 2026-04-22 19:39 | 49.45792 | 2.11034 | 359 ft | 4 kts | 312° |
| 2026-04-22 19:39 | 49.45784 | 2.11049 | 361 ft | 0 kts | 303° |
| 2026-04-22 19:42 | 49.45788 | 2.11039 | 357 ft | 3 kts | 300° |
| 2026-04-22 19:42 | 49.45778 | 2.10983 | 358 ft | 8 kts | 221° |
| 2026-04-22 19:43 | 49.45662 | 2.10884 | 356 ft | 11 kts | 218° |
| 2026-04-22 19:43 | 49.45618 | 2.10880 | 355 ft | 8 kts | 133° |
| 2026-04-22 19:43 | 49.45612 | 2.10891 | 357 ft | 0 kts | 122° |
| 2026-04-22 19:44 | 49.45612 | 2.10892 | 357 ft | 0 kts | 122° |
| 2026-04-22 19:44 | 49.45575 | 2.10979 | 357 ft | 38 kts | 123° |
| 2026-04-22 19:44 | 49.45257 | 2.11706 | 336 ft | 122 kts | 124° |
| 2026-04-22 19:44 | 49.44665 | 2.13026 | 596 ft | 165 kts | 122° |
| 2026-04-22 19:45 | 49.43980 | 2.14474 | 1415 ft | 173 kts | 123° |
| 2026-04-22 19:45 | 49.43213 | 2.15988 | 2311 ft | 179 kts | 122° |
| 2026-04-22 19:45 | 49.42762 | 2.17838 | 2992 ft | 190 kts | 86° |
| 2026-04-22 19:45 | 49.43202 | 2.19647 | 4176 ft | 191 kts | 55° |
| 2026-04-22 19:46 | 49.44355 | 2.20854 | 4962 ft | 215 kts | 21° |
| 2026-04-22 19:46 | 49.45917 | 2.20899 | 5711 ft | 241 kts | 348° |
| 2026-04-22 19:46 | 49.47482 | 2.19692 | 6434 ft | 264 kts | 327° |
| 2026-04-22 19:46 | 49.49024 | 2.17965 | 7130 ft | 283 kts | 326° |
| 2026-04-22 19:47 | 49.50640 | 2.16128 | 7983 ft | 291 kts | 326° |
| 2026-04-22 19:47 | 49.52290 | 2.14313 | 9038 ft | 294 kts | 332° |
| 2026-04-22 19:47 | 49.54212 | 2.13449 | 10072 ft | 287 kts | 1° |
| 2026-04-22 19:47 | 49.56229 | 2.13448 | 10863 ft | 298 kts | 359° |
| 2026-04-22 19:48 | 49.58364 | 2.13145 | 11414 ft | 316 kts | 358° |
| 2026-04-22 19:48 | 49.60589 | 2.12827 | 12103 ft | 326 kts | 358° |
| 2026-04-22 19:48 | 49.62850 | 2.12517 | 13057 ft | 327 kts | 358° |
| 2026-04-22 19:48 | 49.65135 | 2.12212 | 13930 ft | 332 kts | 359° |
| 2026-04-22 19:49 | 49.67457 | 2.11905 | 14734 ft | 335 kts | 358° |
| 2026-04-22 19:49 | 49.69780 | 2.11599 | 15515 ft | 338 kts | 358° |
| 2026-04-22 19:49 | 49.72103 | 2.11293 | 16271 ft | 341 kts | 358° |
| 2026-04-22 19:49 | 49.74476 | 2.10982 | 17018 ft | 344 kts | 358° |
| 2026-04-22 19:50 | 49.76881 | 2.10665 | 17728 ft | 348 kts | 358° |
| 2026-04-22 19:50 | 49.79301 | 2.10347 | 18474 ft | 350 kts | 358° |
| 2026-04-22 19:50 | 49.81741 | 2.10025 | 19104 ft | 353 kts | 358° |
| 2026-04-22 19:50 | 49.84194 | 2.09700 | 19764 ft | 354 kts | 357° |
| 2026-04-22 19:51 | 49.86656 | 2.09375 | 20412 ft | 355 kts | 357° |
| 2026-04-22 19:51 | 49.89125 | 2.09049 | 21044 ft | 357 kts | 356° |
| 2026-04-22 19:51 | 49.91603 | 2.08721 | 21678 ft | 358 kts | 356° |
| 2026-04-22 19:51 | 49.94095 | 2.08391 | 22313 ft | 360 kts | 356° |
| 2026-04-22 19:52 | 49.96591 | 2.08062 | 22925 ft | 362 kts | 356° |
| 2026-04-22 19:52 | 49.99127 | 2.07726 | 23418 ft | 367 kts | 356° |
| 2026-04-22 19:52 | 50.01683 | 2.07386 | 24009 ft | 369 kts | 355° |
| 2026-04-22 19:52 | 50.04247 | 2.07045 | 24515 ft | 371 kts | 355° |
| 2026-04-22 19:53 | 50.06821 | 2.06703 | 25046 ft | 372 kts | 355° |
| 2026-04-22 19:53 | 50.09404 | 2.06359 | 25553 ft | 373 kts | 355° |
| 2026-04-22 19:53 | 50.11966 | 2.06017 | 26057 ft | 375 kts | 354° |
| 2026-04-22 19:53 | 50.14572 | 2.05670 | 26569 ft | 376 kts | 354° |
| 2026-04-22 19:54 | 50.17183 | 2.05321 | 27056 ft | 377 kts | 354° |
| 2026-04-22 19:54 | 50.19799 | 2.04973 | 27549 ft | 379 kts | 354° |
| 2026-04-22 19:54 | 50.22438 | 2.04619 | 28020 ft | 381 kts | 354° |
| 2026-04-22 19:54 | 50.25090 | 2.04264 | 28498 ft | 382 kts | 354° |
| 2026-04-22 19:55 | 50.27743 | 2.03908 | 28966 ft | 383 kts | 353° |
| 2026-04-22 19:55 | 50.30406 | 2.03551 | 29438 ft | 385 kts | 353° |
| 2026-04-22 19:55 | 50.33092 | 2.03190 | 29889 ft | 386 kts | 353° |
| 2026-04-22 19:55 | 50.35739 | 2.02589 | 30298 ft | 386 kts | 342° |
| 2026-04-22 19:56 | 50.38149 | 2.00797 | 30675 ft | 387 kts | 326° |
| 2026-04-22 19:56 | 50.40243 | 1.98200 | 30975 ft | 390 kts | 322° |
| 2026-04-22 19:56 | 50.42349 | 1.95479 | 31316 ft | 392 kts | 322° |
| 2026-04-22 19:56 | 50.44431 | 1.92719 | 31722 ft | 392 kts | 321° |
| 2026-04-22 19:57 | 50.46504 | 1.89934 | 32159 ft | 391 kts | 321° |
| 2026-04-22 19:57 | 50.48567 | 1.87138 | 32624 ft | 390 kts | 321° |
| 2026-04-22 19:57 | 50.50610 | 1.84352 | 33032 ft | 389 kts | 320° |
| 2026-04-22 19:57 | 50.52645 | 1.81569 | 33444 ft | 388 kts | 320° |
| 2026-04-22 19:58 | 50.54684 | 1.78777 | 33866 ft | 388 kts | 320° |
| 2026-04-22 19:58 | 50.56712 | 1.75995 | 34249 ft | 388 kts | 320° |
| 2026-04-22 19:58 | 50.60774 | 1.70413 | 34324 ft | 385 kts | 320° |
| 2026-04-22 20:00 | 50.74827 | 1.50986 | 34326 ft | 384 kts | 320° |
| 2026-04-22 20:01 | 50.78840 | 1.45409 | 34333 ft | 384 kts | 320° |
| 2026-04-22 20:01 | 50.82854 | 1.39820 | 34310 ft | 384 kts | 320° |
| 2026-04-22 20:02 | 50.86884 | 1.34197 | 34337 ft | 387 kts | 319° |
| 2026-04-22 20:02 | 50.90921 | 1.28549 | 34343 ft | 386 kts | 319° |
| 2026-04-22 20:03 | 50.94921 | 1.22941 | 34345 ft | 386 kts | 319° |
| 2026-04-22 20:03 | 50.98946 | 1.17283 | 34347 ft | 386 kts | 319° |
| 2026-04-22 20:04 | 51.02966 | 1.11617 | 34344 ft | 386 kts | 319° |
| 2026-04-22 20:04 | 51.06945 | 1.05852 | 34348 ft | 387 kts | 316° |
| 2026-04-22 20:05 | 51.10790 | 0.99864 | 34353 ft | 387 kts | 317° |
| 2026-04-22 20:05 | 51.14624 | 0.93923 | 34322 ft | 387 kts | 317° |
| 2026-04-22 20:06 | 51.18491 | 0.87919 | 34405 ft | 389 kts | 317° |
| 2026-04-22 20:06 | 51.22363 | 0.81893 | 34426 ft | 389 kts | 317° |
| 2026-04-22 20:07 | 51.26234 | 0.75855 | 34442 ft | 389 kts | 317° |
| 2026-04-22 20:07 | 51.30109 | 0.69794 | 34455 ft | 389 kts | 316° |
| 2026-04-22 20:08 | 51.33977 | 0.63730 | 34369 ft | 389 kts | 316° |
| 2026-04-22 20:08 | 51.37845 | 0.57650 | 34367 ft | 390 kts | 316° |
| 2026-04-22 20:09 | 51.41683 | 0.51603 | 34368 ft | 389 kts | 316° |
| 2026-04-22 20:09 | 51.45544 | 0.45503 | 34349 ft | 390 kts | 316° |
| 2026-04-22 20:10 | 51.49415 | 0.39373 | 34369 ft | 391 kts | 316° |
| 2026-04-22 20:10 | 51.53293 | 0.33217 | 34372 ft | 391 kts | 316° |
| 2026-04-22 20:11 | 51.57139 | 0.27095 | 34373 ft | 391 kts | 316° |
| 2026-04-22 20:11 | 51.61004 | 0.20930 | 34374 ft | 391 kts | 316° |
| 2026-04-22 20:12 | 51.64858 | 0.14736 | 34374 ft | 391 kts | 315° |
| 2026-04-22 20:12 | 51.68033 | 0.09522 | 34371 ft | 391 kts | 315° |
| 2026-04-22 20:13 | 51.72494 | 0.02198 | 34389 ft | 392 kts | 315° |
| 2026-04-22 20:13 | 51.76308 | -0.04085 | 34423 ft | 393 kts | 315° |
| 2026-04-22 20:14 | 51.80152 | -0.10427 | 34438 ft | 395 kts | 315° |
| 2026-04-22 20:14 | 51.83992 | -0.16783 | 34377 ft | 394 kts | 315° |
| 2026-04-22 20:15 | 51.87798 | -0.23097 | 34374 ft | 394 kts | 315° |
| 2026-04-22 20:15 | 51.91629 | -0.29470 | 34372 ft | 394 kts | 315° |
| 2026-04-22 20:16 | 51.95432 | -0.35813 | 34272 ft | 385 kts | 315° |
| 2026-04-22 20:16 | 51.97274 | -0.38890 | 34012 ft | 375 kts | 315° |
| 2026-04-22 20:16 | 51.99072 | -0.41899 | 33760 ft | 369 kts | 315° |
| 2026-04-22 20:16 | 52.00261 | -0.43891 | 33587 ft | 368 kts | 315° |
| 2026-04-22 20:17 | 52.02041 | -0.46875 | 33335 ft | 366 kts | 315° |
| 2026-04-22 20:17 | 52.03808 | -0.49841 | 33103 ft | 365 kts | 315° |
| 2026-04-22 20:17 | 52.06143 | -0.53766 | 32782 ft | 363 kts | 315° |
| 2026-04-22 20:17 | 52.07894 | -0.56714 | 32539 ft | 362 kts | 315° |
| 2026-04-22 20:18 | 52.09076 | -0.58705 | 32379 ft | 361 kts | 315° |
| 2026-04-22 20:18 | 52.10801 | -0.61615 | 32137 ft | 359 kts | 315° |
| 2026-04-22 20:18 | 52.12524 | -0.64525 | 31736 ft | 355 kts | 315° |
| 2026-04-22 20:18 | 52.14241 | -0.67427 | 31206 ft | 356 kts | 315° |
| 2026-04-22 20:19 | 52.15957 | -0.70332 | 30716 ft | 356 kts | 315° |
| 2026-04-22 20:19 | 52.17668 | -0.73232 | 30272 ft | 353 kts | 315° |
| 2026-04-22 20:19 | 52.19363 | -0.76106 | 29841 ft | 350 kts | 315° |
| 2026-04-22 20:19 | 52.21042 | -0.78957 | 29436 ft | 346 kts | 315° |
| 2026-04-22 20:20 | 52.22702 | -0.81777 | 29047 ft | 343 kts | 315° |
| 2026-04-22 20:20 | 52.24354 | -0.84548 | 28657 ft | 339 kts | 319° |
| 2026-04-22 20:20 | 52.26278 | -0.86746 | 28203 ft | 336 kts | 330° |
| 2026-04-22 20:20 | 52.28261 | -0.88711 | 27887 ft | 331 kts | 329° |
| 2026-04-22 20:21 | 52.30191 | -0.90647 | 27552 ft | 328 kts | 329° |
| 2026-04-22 20:21 | 52.32130 | -0.92583 | 27202 ft | 325 kts | 329° |
| 2026-04-22 20:21 | 52.34054 | -0.94502 | 26866 ft | 324 kts | 329° |
| 2026-04-22 20:21 | 52.36002 | -0.96445 | 26512 ft | 330 kts | 330° |
| 2026-04-22 20:22 | 52.37973 | -0.98413 | 26161 ft | 334 kts | 330° |
| 2026-04-22 20:22 | 52.39963 | -1.00402 | 25791 ft | 335 kts | 329° |
| 2026-04-22 20:22 | 52.41963 | -1.02403 | 25445 ft | 337 kts | 329° |
| 2026-04-22 20:22 | 52.43962 | -1.04405 | 25059 ft | 337 kts | 329° |
| 2026-04-22 20:23 | 52.45963 | -1.06410 | 24685 ft | 336 kts | 329° |
| 2026-04-22 20:23 | 52.47930 | -1.08383 | 24327 ft | 334 kts | 329° |
| 2026-04-22 20:23 | 52.49909 | -1.10372 | 23931 ft | 334 kts | 329° |
| 2026-04-22 20:23 | 52.51890 | -1.12366 | 23498 ft | 333 kts | 329° |
| 2026-04-22 20:24 | 52.53852 | -1.14342 | 23123 ft | 329 kts | 329° |
| 2026-04-22 20:24 | 52.55800 | -1.16306 | 22760 ft | 327 kts | 329° |
| 2026-04-22 20:24 | 52.57734 | -1.18255 | 22360 ft | 325 kts | 330° |
| 2026-04-22 20:24 | 52.59650 | -1.20189 | 22027 ft | 322 kts | 329° |
| 2026-04-22 20:25 | 52.61550 | -1.22107 | 21698 ft | 318 kts | 330° |
| 2026-04-22 20:25 | 52.63436 | -1.24015 | 21358 ft | 316 kts | 329° |
| 2026-04-22 20:25 | 52.65301 | -1.25903 | 21040 ft | 315 kts | 329° |
| 2026-04-22 20:25 | 52.67192 | -1.27818 | 20709 ft | 321 kts | 329° |
| 2026-04-22 20:26 | 52.69109 | -1.29763 | 20372 ft | 326 kts | 329° |
| 2026-04-22 20:26 | 52.71046 | -1.31732 | 20015 ft | 328 kts | 329° |
| 2026-04-22 20:26 | 52.72989 | -1.33708 | 19664 ft | 327 kts | 329° |
| 2026-04-22 20:26 | 52.74900 | -1.35656 | 19451 ft | 327 kts | 329° |
| 2026-04-22 20:27 | 52.76830 | -1.37624 | 19071 ft | 327 kts | 328° |
| 2026-04-22 20:27 | 52.78765 | -1.39601 | 18691 ft | 327 kts | 328° |
| 2026-04-22 20:27 | 52.80703 | -1.41581 | 18260 ft | 327 kts | 328° |
| 2026-04-22 20:27 | 52.82643 | -1.43565 | 17860 ft | 327 kts | 328° |
| 2026-04-22 20:28 | 52.84574 | -1.45543 | 17470 ft | 326 kts | 328° |
| 2026-04-22 20:28 | 52.86502 | -1.47519 | 17091 ft | 325 kts | 328° |
| 2026-04-22 20:28 | 52.88425 | -1.49492 | 16718 ft | 325 kts | 328° |
| 2026-04-22 20:28 | 52.90339 | -1.51458 | 16348 ft | 324 kts | 328° |
| 2026-04-22 20:29 | 52.92254 | -1.53428 | 15968 ft | 324 kts | 328° |
| 2026-04-22 20:29 | 52.94167 | -1.55398 | 15592 ft | 324 kts | 328° |
| 2026-04-22 20:29 | 52.96082 | -1.57372 | 15214 ft | 324 kts | 328° |
| 2026-04-22 20:29 | 52.97998 | -1.59348 | 14845 ft | 324 kts | 328° |
| 2026-04-22 20:30 | 52.99913 | -1.61326 | 14467 ft | 324 kts | 327° |
| 2026-04-22 20:30 | 53.01832 | -1.63311 | 14066 ft | 325 kts | 327° |
| 2026-04-22 20:30 | 53.03753 | -1.65297 | 13654 ft | 325 kts | 327° |
| 2026-04-22 20:30 | 53.05607 | -1.67433 | 13238 ft | 324 kts | 314° |
| 2026-04-22 20:31 | 53.07083 | -1.70245 | 12837 ft | 322 kts | 309° |
| 2026-04-22 20:31 | 53.08531 | -1.73063 | 12500 ft | 320 kts | 309° |
| 2026-04-22 20:31 | 53.09981 | -1.75871 | 12145 ft | 319 kts | 309° |
| 2026-04-22 20:31 | 53.11424 | -1.78669 | 11752 ft | 319 kts | 309° |
| 2026-04-22 20:32 | 53.12872 | -1.81480 | 11361 ft | 320 kts | 309° |
| 2026-04-22 20:32 | 53.14323 | -1.84299 | 11008 ft | 319 kts | 309° |
| 2026-04-22 20:32 | 53.15764 | -1.87105 | 10646 ft | 318 kts | 309° |
| 2026-04-22 20:32 | 53.17202 | -1.89905 | 10281 ft | 318 kts | 309° |
| 2026-04-22 20:33 | 53.18621 | -1.92676 | 9867 ft | 318 kts | 309° |
| 2026-04-22 20:33 | 53.20078 | -1.95518 | 9480 ft | 318 kts | 309° |
| 2026-04-22 20:33 | 53.21509 | -1.98314 | 9110 ft | 316 kts | 309° |
| 2026-04-22 20:33 | 53.22914 | -2.01063 | 8743 ft | 315 kts | 309° |
| 2026-04-22 20:34 | 53.24335 | -2.03833 | 8484 ft | 310 kts | 309° |
| 2026-04-22 20:34 | 53.25417 | -2.06810 | 8491 ft | 293 kts | 286° |
| 2026-04-22 20:34 | 53.25641 | -2.10050 | 8441 ft | 273 kts | 258° |
| 2026-04-22 20:34 | 53.25139 | -2.13002 | 8320 ft | 260 kts | 245° |
| 2026-04-22 20:35 | 53.24500 | -2.15834 | 7954 ft | 261 kts | 245° |
| 2026-04-22 20:35 | 53.23855 | -2.18656 | 7685 ft | 259 kts | 245° |
| 2026-04-22 20:35 | 53.23225 | -2.21480 | 7425 ft | 258 kts | 245° |
| 2026-04-22 20:35 | 53.22590 | -2.24278 | 7142 ft | 257 kts | 245° |
| 2026-04-22 20:36 | 53.21962 | -2.27063 | 6864 ft | 256 kts | 245° |
| 2026-04-22 20:36 | 53.21335 | -2.29786 | 6582 ft | 254 kts | 245° |
| 2026-04-22 20:36 | 53.20705 | -2.32549 | 6247 ft | 255 kts | 245° |
| 2026-04-22 20:36 | 53.20084 | -2.35310 | 5954 ft | 254 kts | 245° |
| 2026-04-22 20:37 | 53.19463 | -2.38069 | 5659 ft | 253 kts | 245° |
| 2026-04-22 20:37 | 53.18852 | -2.40809 | 5371 ft | 252 kts | 245° |
| 2026-04-22 20:37 | 53.18251 | -2.43521 | 5210 ft | 245 kts | 245° |
| 2026-04-22 20:37 | 53.17748 | -2.46190 | 5100 ft | 239 kts | 259° |
| 2026-04-22 20:38 | 53.17955 | -2.48898 | 4949 ft | 238 kts | 291° |
| 2026-04-22 20:38 | 53.18933 | -2.51130 | 4664 ft | 237 kts | 317° |
| 2026-04-22 20:38 | 53.20183 | -2.52797 | 4549 ft | 224 kts | 326° |
| 2026-04-22 20:38 | 53.21574 | -2.53757 | 4311 ft | 212 kts | 0° |
| 2026-04-22 20:39 | 53.22954 | -2.53306 | 4052 ft | 200 kts | 36° |
| 2026-04-22 20:39 | 53.23894 | -2.51792 | 3816 ft | 182 kts | 64° |
| 2026-04-22 20:39 | 53.24573 | -2.50021 | 3547 ft | 180 kts | 63° |
| 2026-04-22 20:39 | 53.25294 | -2.48327 | 3295 ft | 178 kts | 61° |
| 2026-04-22 20:40 | 53.26029 | -2.46723 | 3047 ft | 175 kts | 60° |
| 2026-04-22 20:40 | 53.26781 | -2.45147 | 2797 ft | 171 kts | 60° |
| 2026-04-22 20:40 | 53.27519 | -2.43621 | 2555 ft | 166 kts | 60° |
| 2026-04-22 20:40 | 53.28233 | -2.42152 | 2332 ft | 160 kts | 60° |
| 2026-04-22 20:41 | 53.28919 | -2.40746 | 2139 ft | 148 kts | 60° |
| 2026-04-22 20:41 | 53.29532 | -2.39486 | 1954 ft | 133 kts | 60° |
| 2026-04-22 20:41 | 53.30103 | -2.38308 | 1754 ft | 128 kts | 59° |
| 2026-04-22 20:41 | 53.30667 | -2.37147 | 1580 ft | 130 kts | 58° |
| 2026-04-22 20:42 | 53.31233 | -2.35988 | 1407 ft | 128 kts | 58° |
| 2026-04-22 20:42 | 53.31786 | -2.34848 | 1206 ft | 129 kts | 57° |
| 2026-04-22 20:42 | 53.32363 | -2.33659 | 1019 ft | 130 kts | 54° |
| 2026-04-22 20:42 | 53.32930 | -2.32491 | 835 ft | 133 kts | 52° |
| 2026-04-22 20:43 | 53.33520 | -2.31312 | 662 ft | 132 kts | 51° |
| 2026-04-22 20:43 | 53.34103 | -2.30121 | 470 ft | 132 kts | 52° |
| 2026-04-22 20:43 | 53.34674 | -2.28953 | 296 ft | 128 kts | 53° |
| 2026-04-22 20:43 | 53.35200 | -2.27849 | 240 ft | 109 kts | 51° |
| 2026-04-22 20:44 | 53.35588 | -2.27053 | 259 ft | 66 kts | 51° |
| 2026-04-22 20:44 | 53.35836 | -2.26544 | 272 ft | 52 kts | 51° |
| 2026-04-22 20:44 | 53.36017 | -2.26167 | 262 ft | 19 kts | 52° |
| 2026-04-22 20:44 | 53.36100 | -2.26198 | 258 ft | 16 kts | 320° |
| 2026-04-22 20:45 | 53.36131 | -2.26337 | 258 ft | 14 kts | 235° |
| 2026-04-22 20:45 | 53.36068 | -2.26469 | 258 ft | 14 kts | 231° |
| 2026-04-22 20:45 | 53.36020 | -2.26568 | 258 ft | 7 kts | 233° |
| 2026-04-22 20:45 | 53.35986 | -2.26640 | 258 ft | 9 kts | 231° |
| 2026-04-22 20:46 | 53.35920 | -2.26915 | 258 ft | 12 kts | 275° |
| 2026-04-22 20:46 | 53.35924 | -2.26977 | 258 ft | 2 kts | 276° |
| 2026-04-22 20:46 | 53.35924 | -2.26984 | 258 ft | 0 kts | 276° |